sensor_id;sensor_type;location;lat;lon;timestamp;P1;durP1;ratioP1;P2;durP2;ratioP2
22060;SDS011;11194;48.092;-1.382;2023-09-19T00:01:24;3.72;;;2.80;;
22060;SDS011;11194;48.092;-1.382;2023-09-19T00:03:50;5.25;;;3.05;;
22060;SDS011;11194;48.092;-1.382;2023-09-19T00:06:17;3.40;;;2.67;;
22060;SDS011;11194;48.092;-1.382;2023-09-19T00:08:45;7.53;;;3.35;;
22060;SDS011;11194;48.092;-1.382;2023-09-19T00:11:12;4.97;;;2.65;;
22060;SDS011;11194;48.092;-1.382;2023-09-19T00:13:39;6.93;;;2.67;;
22060;SDS011;11194;48.092;-1.382;2023-09-19T00:16:09;3.95;;;2.17;;
22060;SDS011;11194;48.092;-1.382;2023-09-19T00:18:39;3.42;;;2.67;;
22060;SDS011;11194;48.092;-1.382;2023-09-19T00:21:05;6.30;;;2.58;;
22060;SDS011;11194;48.092;-1.382;2023-09-19T00:23:32;7.18;;;2.80;;
22060;SDS011;11194;48.092;-1.382;2023-09-19T00:25:59;5.50;;;2.80;;
22060;SDS011;11194;48.092;-1.382;2023-09-19T00:28:26;3.95;;;2.70;;
22060;SDS011;11194;48.092;-1.382;2023-09-19T00:30:52;5.15;;;2.63;;
22060;SDS011;11194;48.092;-1.382;2023-09-19T00:33:20;5.18;;;2.58;;
22060;SDS011;11194;48.092;-1.382;2023-09-19T00:35:52;4.00;;;2.88;;
22060;SDS011;11194;48.092;-1.382;2023-09-19T00:38:19;5.50;;;2.88;;
22060;SDS011;11194;48.092;-1.382;2023-09-19T00:40:47;6.32;;;2.35;;
22060;SDS011;11194;48.092;-1.382;2023-09-19T00:43:14;4.63;;;2.60;;
22060;SDS011;11194;48.092;-1.382;2023-09-19T00:45:42;4.13;;;2.58;;
22060;SDS011;11194;48.092;-1.382;2023-09-19T00:48:09;6.47;;;2.50;;
22060;SDS011;11194;48.092;-1.382;2023-09-19T00:50:35;5.75;;;2.95;;
22060;SDS011;11194;48.092;-1.382;2023-09-19T00:53:02;3.72;;;2.15;;
22060;SDS011;11194;48.092;-1.382;2023-09-19T00:55:33;9.95;;;3.10;;
22060;SDS011;11194;48.092;-1.382;2023-09-19T00:57:59;5.95;;;2.78;;
22060;SDS011;11194;48.092;-1.382;2023-09-19T01:00:26;4.85;;;3.08;;
22060;SDS011;11194;48.092;-1.382;2023-09-19T01:02:52;6.38;;;2.30;;
22060;SDS011;11194;48.092;-1.382;2023-09-19T01:05:18;4.93;;;2.53;;
22060;SDS011;11194;48.092;-1.382;2023-09-19T01:07:44;6.00;;;3.25;;
22060;SDS011;11194;48.092;-1.382;2023-09-19T01:10:12;5.00;;;2.60;;
22060;SDS011;11194;48.092;-1.382;2023-09-19T01:15:31;3.72;;;2.60;;
22060;SDS011;11194;48.092;-1.382;2023-09-19T01:28:33;10.13;;;4.57;;
22060;SDS011;11194;48.092;-1.382;2023-09-19T01:31:03;10.00;;;5.95;;
22060;SDS011;11194;48.092;-1.382;2023-09-19T01:36:16;22.35;;;14.80;;
22060;SDS011;11194;48.092;-1.382;2023-09-19T01:38:42;18.45;;;13.35;;
22060;SDS011;11194;48.092;-1.382;2023-09-19T01:41:10;16.25;;;10.73;;
22060;SDS011;11194;48.092;-1.382;2023-09-19T01:43:43;15.75;;;9.23;;
22060;SDS011;11194;48.092;-1.382;2023-09-19T01:46:16;12.20;;;9.25;;
22060;SDS011;11194;48.092;-1.382;2023-09-19T01:49:02;14.23;;;9.32;;
22060;SDS011;11194;48.092;-1.382;2023-09-19T01:51:40;15.43;;;8.70;;
22060;SDS011;11194;48.092;-1.382;2023-09-19T01:54:11;20.55;;;10.25;;
22060;SDS011;11194;48.092;-1.382;2023-09-19T01:56:53;21.42;;;11.45;;
22060;SDS011;11194;48.092;-1.382;2023-09-19T01:59:28;21.13;;;11.95;;
22060;SDS011;11194;48.092;-1.382;2023-09-19T02:01:58;16.88;;;11.32;;
22060;SDS011;11194;48.092;-1.382;2023-09-19T02:04:25;17.02;;;10.35;;
22060;SDS011;11194;48.092;-1.382;2023-09-19T02:06:52;17.83;;;9.77;;
22060;SDS011;11194;48.092;-1.382;2023-09-19T02:09:19;16.23;;;8.82;;
22060;SDS011;11194;48.092;-1.382;2023-09-19T02:11:45;13.60;;;8.13;;
22060;SDS011;11194;48.092;-1.382;2023-09-19T02:14:11;12.70;;;9.43;;
22060;SDS011;11194;48.092;-1.382;2023-09-19T02:16:37;16.35;;;10.77;;
22060;SDS011;11194;48.092;-1.382;2023-09-19T02:19:03;19.38;;;10.75;;
22060;SDS011;11194;48.092;-1.382;2023-09-19T02:21:31;14.15;;;9.75;;
22060;SDS011;11194;48.092;-1.382;2023-09-19T02:23:57;13.25;;;8.75;;
22060;SDS011;11194;48.092;-1.382;2023-09-19T02:26:24;14.55;;;10.40;;
22060;SDS011;11194;48.092;-1.382;2023-09-19T02:28:50;14.93;;;10.93;;
22060;SDS011;11194;48.092;-1.382;2023-09-19T02:31:16;12.20;;;9.13;;
22060;SDS011;11194;48.092;-1.382;2023-09-19T02:33:42;13.93;;;10.18;;
22060;SDS011;11194;48.092;-1.382;2023-09-19T02:36:08;13.88;;;8.60;;
22060;SDS011;11194;48.092;-1.382;2023-09-19T02:38:35;13.27;;;8.75;;
22060;SDS011;11194;48.092;-1.382;2023-09-19T02:41:02;19.58;;;11.38;;
22060;SDS011;11194;48.092;-1.382;2023-09-19T02:43:29;19.42;;;12.00;;
22060;SDS011;11194;48.092;-1.382;2023-09-19T02:45:55;17.02;;;11.73;;
22060;SDS011;11194;48.092;-1.382;2023-09-19T02:48:22;15.23;;;9.88;;
22060;SDS011;11194;48.092;-1.382;2023-09-19T02:50:49;13.23;;;6.75;;
22060;SDS011;11194;48.092;-1.382;2023-09-19T02:53:16;11.75;;;7.30;;
22060;SDS011;11194;48.092;-1.382;2023-09-19T02:55:42;11.15;;;7.20;;
22060;SDS011;11194;48.092;-1.382;2023-09-19T02:58:08;10.18;;;5.43;;
22060;SDS011;11194;48.092;-1.382;2023-09-19T03:00:36;12.35;;;6.03;;
22060;SDS011;11194;48.092;-1.382;2023-09-19T03:03:03;12.82;;;6.50;;
22060;SDS011;11194;48.092;-1.382;2023-09-19T03:05:31;18.38;;;6.82;;
22060;SDS011;11194;48.092;-1.382;2023-09-19T03:07:57;10.90;;;6.13;;
22060;SDS011;11194;48.092;-1.382;2023-09-19T03:10:26;12.23;;;6.50;;
22060;SDS011;11194;48.092;-1.382;2023-09-19T03:12:53;22.20;;;10.45;;
22060;SDS011;11194;48.092;-1.382;2023-09-19T03:15:19;21.13;;;11.30;;
22060;SDS011;11194;48.092;-1.382;2023-09-19T03:17:46;22.33;;;13.50;;
22060;SDS011;11194;48.092;-1.382;2023-09-19T03:20:12;23.33;;;14.45;;
22060;SDS011;11194;48.092;-1.382;2023-09-19T03:22:39;23.60;;;13.50;;
22060;SDS011;11194;48.092;-1.382;2023-09-19T03:25:05;20.15;;;11.27;;
22060;SDS011;11194;48.092;-1.382;2023-09-19T03:27:36;12.63;;;4.72;;
22060;SDS011;11194;48.092;-1.382;2023-09-19T03:30:03;6.57;;;3.40;;
22060;SDS011;11194;48.092;-1.382;2023-09-19T03:32:33;7.97;;;3.13;;
22060;SDS011;11194;48.092;-1.382;2023-09-19T03:34:59;4.90;;;2.45;;
22060;SDS011;11194;48.092;-1.382;2023-09-19T03:37:26;9.73;;;3.72;;
22060;SDS011;11194;48.092;-1.382;2023-09-19T03:39:52;9.25;;;4.05;;
22060;SDS011;11194;48.092;-1.382;2023-09-19T03:42:18;16.38;;;5.70;;
22060;SDS011;11194;48.092;-1.382;2023-09-19T03:44:50;11.82;;;6.68;;
22060;SDS011;11194;48.092;-1.382;2023-09-19T03:47:17;11.50;;;6.07;;
22060;SDS011;11194;48.092;-1.382;2023-09-19T03:49:44;11.27;;;5.13;;
22060;SDS011;11194;48.092;-1.382;2023-09-19T03:52:10;10.23;;;4.93;;
22060;SDS011;11194;48.092;-1.382;2023-09-19T03:54:36;12.13;;;5.18;;
22060;SDS011;11194;48.092;-1.382;2023-09-19T03:57:02;13.00;;;6.53;;
22060;SDS011;11194;48.092;-1.382;2023-09-19T03:59:29;14.57;;;5.40;;
22060;SDS011;11194;48.092;-1.382;2023-09-19T04:01:55;14.00;;;7.30;;
22060;SDS011;11194;48.092;-1.382;2023-09-19T04:04:22;13.05;;;6.93;;
22060;SDS011;11194;48.092;-1.382;2023-09-19T04:06:50;11.13;;;7.20;;
22060;SDS011;11194;48.092;-1.382;2023-09-19T04:09:16;15.60;;;7.55;;
22060;SDS011;11194;48.092;-1.382;2023-09-19T04:11:42;13.52;;;8.05;;
22060;SDS011;11194;48.092;-1.382;2023-09-19T04:14:08;11.70;;;7.80;;
22060;SDS011;11194;48.092;-1.382;2023-09-19T04:16:34;16.25;;;9.60;;
22060;SDS011;11194;48.092;-1.382;2023-09-19T04:19:00;16.38;;;11.57;;
22060;SDS011;11194;48.092;-1.382;2023-09-19T04:21:28;23.48;;;13.18;;
22060;SDS011;11194;48.092;-1.382;2023-09-19T04:23:54;19.15;;;11.23;;
22060;SDS011;11194;48.092;-1.382;2023-09-19T04:26:20;14.15;;;9.60;;
22060;SDS011;11194;48.092;-1.382;2023-09-19T04:28:46;17.83;;;9.80;;
22060;SDS011;11194;48.092;-1.382;2023-09-19T04:31:13;16.13;;;9.02;;
22060;SDS011;11194;48.092;-1.382;2023-09-19T04:33:39;15.88;;;9.07;;
22060;SDS011;11194;48.092;-1.382;2023-09-19T04:36:05;14.93;;;7.75;;
22060;SDS011;11194;48.092;-1.382;2023-09-19T04:38:32;14.80;;;6.13;;
22060;SDS011;11194;48.092;-1.382;2023-09-19T04:40:59;9.40;;;5.38;;
22060;SDS011;11194;48.092;-1.382;2023-09-19T04:43:25;11.68;;;6.68;;
22060;SDS011;11194;48.092;-1.382;2023-09-19T04:45:51;17.30;;;7.90;;
22060;SDS011;11194;48.092;-1.382;2023-09-19T04:48:21;12.38;;;7.00;;
22060;SDS011;11194;48.092;-1.382;2023-09-19T04:50:49;13.35;;;8.07;;
22060;SDS011;11194;48.092;-1.382;2023-09-19T04:53:16;22.35;;;10.23;;
22060;SDS011;11194;48.092;-1.382;2023-09-19T04:55:42;15.82;;;9.18;;
22060;SDS011;11194;48.092;-1.382;2023-09-19T04:58:08;16.38;;;10.25;;
22060;SDS011;11194;48.092;-1.382;2023-09-19T05:00:35;19.98;;;10.50;;
22060;SDS011;11194;48.092;-1.382;2023-09-19T05:03:01;18.95;;;9.65;;
22060;SDS011;11194;48.092;-1.382;2023-09-19T05:05:29;16.08;;;9.68;;
22060;SDS011;11194;48.092;-1.382;2023-09-19T05:07:55;15.07;;;9.07;;
22060;SDS011;11194;48.092;-1.382;2023-09-19T05:10:21;13.98;;;8.93;;
22060;SDS011;11194;48.092;-1.382;2023-09-19T05:12:47;17.48;;;8.30;;
22060;SDS011;11194;48.092;-1.382;2023-09-19T05:15:16;8.38;;;4.63;;
22060;SDS011;11194;48.092;-1.382;2023-09-19T05:17:47;12.02;;;3.42;;
22060;SDS011;11194;48.092;-1.382;2023-09-19T05:20:15;8.95;;;3.75;;
22060;SDS011;11194;48.092;-1.382;2023-09-19T05:22:41;7.88;;;3.38;;
22060;SDS011;11194;48.092;-1.382;2023-09-19T05:25:08;7.57;;;3.22;;
22060;SDS011;11194;48.092;-1.382;2023-09-19T05:27:35;8.02;;;2.75;;
22060;SDS011;11194;48.092;-1.382;2023-09-19T05:30:01;9.57;;;2.67;;
22060;SDS011;11194;48.092;-1.382;2023-09-19T05:32:27;7.72;;;2.60;;
22060;SDS011;11194;48.092;-1.382;2023-09-19T05:34:53;8.90;;;2.67;;
22060;SDS011;11194;48.092;-1.382;2023-09-19T05:37:21;7.90;;;2.70;;
22060;SDS011;11194;48.092;-1.382;2023-09-19T05:39:48;6.63;;;2.72;;
22060;SDS011;11194;48.092;-1.382;2023-09-19T05:42:14;8.55;;;2.80;;
22060;SDS011;11194;48.092;-1.382;2023-09-19T05:44:40;10.48;;;2.85;;
22060;SDS011;11194;48.092;-1.382;2023-09-19T05:47:06;6.82;;;3.10;;
22060;SDS011;11194;48.092;-1.382;2023-09-19T05:49:34;13.68;;;3.10;;
22060;SDS011;11194;48.092;-1.382;2023-09-19T05:52:04;8.13;;;2.60;;
22060;SDS011;11194;48.092;-1.382;2023-09-19T05:54:31;10.02;;;2.88;;
22060;SDS011;11194;48.092;-1.382;2023-09-19T05:56:59;5.20;;;2.45;;
22060;SDS011;11194;48.092;-1.382;2023-09-19T05:59:25;13.30;;;2.67;;
22060;SDS011;11194;48.092;-1.382;2023-09-19T06:01:51;8.38;;;3.03;;
22060;SDS011;11194;48.092;-1.382;2023-09-19T06:04:18;8.55;;;3.08;;
22060;SDS011;11194;48.092;-1.382;2023-09-19T06:06:46;10.15;;;3.03;;
22060;SDS011;11194;48.092;-1.382;2023-09-19T06:09:13;16.13;;;2.88;;
22060;SDS011;11194;48.092;-1.382;2023-09-19T06:11:42;6.28;;;2.92;;
22060;SDS011;11194;48.092;-1.382;2023-09-19T06:14:08;17.27;;;3.03;;
22060;SDS011;11194;48.092;-1.382;2023-09-19T06:16:35;9.45;;;2.92;;
22060;SDS011;11194;48.092;-1.382;2023-09-19T06:19:03;8.65;;;3.20;;
22060;SDS011;11194;48.092;-1.382;2023-09-19T06:21:33;5.20;;;2.30;;
22060;SDS011;11194;48.092;-1.382;2023-09-19T06:23:59;8.48;;;2.78;;
22060;SDS011;11194;48.092;-1.382;2023-09-19T06:26:26;11.60;;;3.50;;
22060;SDS011;11194;48.092;-1.382;2023-09-19T06:28:52;8.93;;;2.70;;
22060;SDS011;11194;48.092;-1.382;2023-09-19T06:31:18;8.63;;;2.90;;
22060;SDS011;11194;48.092;-1.382;2023-09-19T06:33:46;7.97;;;2.35;;
22060;SDS011;11194;48.092;-1.382;2023-09-19T06:36:12;8.75;;;2.72;;
22060;SDS011;11194;48.092;-1.382;2023-09-19T06:38:38;7.55;;;2.83;;
22060;SDS011;11194;48.092;-1.382;2023-09-19T06:41:06;7.47;;;2.63;;
22060;SDS011;11194;48.092;-1.382;2023-09-19T06:43:33;7.15;;;2.60;;
22060;SDS011;11194;48.092;-1.382;2023-09-19T06:46:00;9.07;;;2.35;;
22060;SDS011;11194;48.092;-1.382;2023-09-19T06:48:26;8.73;;;3.10;;
22060;SDS011;11194;48.092;-1.382;2023-09-19T06:50:54;10.82;;;2.72;;
22060;SDS011;11194;48.092;-1.382;2023-09-19T06:53:20;6.88;;;2.15;;
22060;SDS011;11194;48.092;-1.382;2023-09-19T06:55:48;10.70;;;2.78;;
22060;SDS011;11194;48.092;-1.382;2023-09-19T06:58:15;6.47;;;2.45;;
22060;SDS011;11194;48.092;-1.382;2023-09-19T07:00:41;9.77;;;2.78;;
22060;SDS011;11194;48.092;-1.382;2023-09-19T07:03:08;9.18;;;2.67;;
22060;SDS011;11194;48.092;-1.382;2023-09-19T07:05:36;8.35;;;2.67;;
22060;SDS011;11194;48.092;-1.382;2023-09-19T07:08:04;7.00;;;2.65;;
22060;SDS011;11194;48.092;-1.382;2023-09-19T07:10:31;10.38;;;2.85;;
22060;SDS011;11194;48.092;-1.382;2023-09-19T07:13:00;6.93;;;2.42;;
22060;SDS011;11194;48.092;-1.382;2023-09-19T07:15:28;11.25;;;2.85;;
22060;SDS011;11194;48.092;-1.382;2023-09-19T07:17:56;9.07;;;2.05;;
22060;SDS011;11194;48.092;-1.382;2023-09-19T07:20:22;11.25;;;2.58;;
22060;SDS011;11194;48.092;-1.382;2023-09-19T07:22:51;9.05;;;2.40;;
22060;SDS011;11194;48.092;-1.382;2023-09-19T07:25:19;6.65;;;2.03;;
22060;SDS011;11194;48.092;-1.382;2023-09-19T07:27:46;7.63;;;2.28;;
22060;SDS011;11194;48.092;-1.382;2023-09-19T07:30:12;9.27;;;2.63;;
22060;SDS011;11194;48.092;-1.382;2023-09-19T07:32:41;7.28;;;2.03;;
22060;SDS011;11194;48.092;-1.382;2023-09-19T07:35:08;10.57;;;2.58;;
22060;SDS011;11194;48.092;-1.382;2023-09-19T07:37:34;5.55;;;2.10;;
22060;SDS011;11194;48.092;-1.382;2023-09-19T07:40:01;7.43;;;2.47;;
22060;SDS011;11194;48.092;-1.382;2023-09-19T07:42:32;5.22;;;2.30;;
22060;SDS011;11194;48.092;-1.382;2023-09-19T07:44:58;6.57;;;2.08;;
22060;SDS011;11194;48.092;-1.382;2023-09-19T07:47:25;5.18;;;2.25;;
22060;SDS011;11194;48.092;-1.382;2023-09-19T07:49:52;4.95;;;2.00;;
22060;SDS011;11194;48.092;-1.382;2023-09-19T07:52:19;7.13;;;2.70;;
22060;SDS011;11194;48.092;-1.382;2023-09-19T07:54:47;7.05;;;2.33;;
22060;SDS011;11194;48.092;-1.382;2023-09-19T07:57:14;6.45;;;3.15;;
22060;SDS011;11194;48.092;-1.382;2023-09-19T07:59:41;7.75;;;2.60;;
22060;SDS011;11194;48.092;-1.382;2023-09-19T08:02:08;7.20;;;2.35;;
22060;SDS011;11194;48.092;-1.382;2023-09-19T08:04:41;7.30;;;2.20;;
22060;SDS011;11194;48.092;-1.382;2023-09-19T08:07:07;11.88;;;2.42;;
22060;SDS011;11194;48.092;-1.382;2023-09-19T08:09:34;8.23;;;2.20;;
22060;SDS011;11194;48.092;-1.382;2023-09-19T08:12:00;7.03;;;2.08;;
22060;SDS011;11194;48.092;-1.382;2023-09-19T08:14:29;10.35;;;2.20;;
22060;SDS011;11194;48.092;-1.382;2023-09-19T08:16:58;5.35;;;1.98;;
22060;SDS011;11194;48.092;-1.382;2023-09-19T08:19:25;4.72;;;1.90;;
22060;SDS011;11194;48.092;-1.382;2023-09-19T08:21:56;3.90;;;1.80;;
22060;SDS011;11194;48.092;-1.382;2023-09-19T08:24:24;5.90;;;1.70;;
22060;SDS011;11194;48.092;-1.382;2023-09-19T08:26:52;6.70;;;2.40;;
22060;SDS011;11194;48.092;-1.382;2023-09-19T08:29:19;4.25;;;1.77;;
22060;SDS011;11194;48.092;-1.382;2023-09-19T08:31:45;6.35;;;1.92;;
22060;SDS011;11194;48.092;-1.382;2023-09-19T08:34:14;6.50;;;2.38;;
22060;SDS011;11194;48.092;-1.382;2023-09-19T08:36:40;10.35;;;2.33;;
22060;SDS011;11194;48.092;-1.382;2023-09-19T08:39:09;7.28;;;2.25;;
22060;SDS011;11194;48.092;-1.382;2023-09-19T08:41:36;10.45;;;2.67;;
22060;SDS011;11194;48.092;-1.382;2023-09-19T08:44:02;5.47;;;1.88;;
22060;SDS011;11194;48.092;-1.382;2023-09-19T08:46:29;4.53;;;1.90;;
22060;SDS011;11194;48.092;-1.382;2023-09-19T08:49:08;5.65;;;1.65;;
22060;SDS011;11194;48.092;-1.382;2023-09-19T08:51:45;7.07;;;2.65;;
22060;SDS011;11194;48.092;-1.382;2023-09-19T08:54:31;8.00;;;3.25;;
22060;SDS011;11194;48.092;-1.382;2023-09-19T08:56:59;6.00;;;2.05;;
22060;SDS011;11194;48.092;-1.382;2023-09-19T08:59:27;7.13;;;2.40;;
22060;SDS011;11194;48.092;-1.382;2023-09-19T09:01:54;10.93;;;4.40;;
22060;SDS011;11194;48.092;-1.382;2023-09-19T09:04:21;10.80;;;5.40;;
22060;SDS011;11194;48.092;-1.382;2023-09-19T09:06:47;17.73;;;7.22;;
22060;SDS011;11194;48.092;-1.382;2023-09-19T09:09:16;22.30;;;11.75;;
22060;SDS011;11194;48.092;-1.382;2023-09-19T09:11:42;18.90;;;8.15;;
22060;SDS011;11194;48.092;-1.382;2023-09-19T09:14:08;20.13;;;8.20;;
22060;SDS011;11194;48.092;-1.382;2023-09-19T09:16:35;14.75;;;7.65;;
22060;SDS011;11194;48.092;-1.382;2023-09-19T09:19:01;11.05;;;5.90;;
22060;SDS011;11194;48.092;-1.382;2023-09-19T09:21:27;11.13;;;5.22;;
22060;SDS011;11194;48.092;-1.382;2023-09-19T09:23:54;10.93;;;2.72;;
22060;SDS011;11194;48.092;-1.382;2023-09-19T09:29:04;9.88;;;3.38;;
22060;SDS011;11194;48.092;-1.382;2023-09-19T09:31:30;9.60;;;2.83;;
22060;SDS011;11194;48.092;-1.382;2023-09-19T09:33:56;6.30;;;2.33;;
22060;SDS011;11194;48.092;-1.382;2023-09-19T09:36:36;6.70;;;2.72;;
22060;SDS011;11194;48.092;-1.382;2023-09-19T09:39:02;8.80;;;2.30;;
22060;SDS011;11194;48.092;-1.382;2023-09-19T09:41:41;9.15;;;2.72;;
22060;SDS011;11194;48.092;-1.382;2023-09-19T09:44:17;14.80;;;2.70;;
22060;SDS011;11194;48.092;-1.382;2023-09-19T09:46:44;7.43;;;2.20;;
22060;SDS011;11194;48.092;-1.382;2023-09-19T09:49:23;11.40;;;2.63;;
22060;SDS011;11194;48.092;-1.382;2023-09-19T09:52:01;3.35;;;1.60;;
22060;SDS011;11194;48.092;-1.382;2023-09-19T09:54:30;9.07;;;2.53;;
22060;SDS011;11194;48.092;-1.382;2023-09-19T09:57:09;9.27;;;2.67;;
22060;SDS011;11194;48.092;-1.382;2023-09-19T10:02:44;9.73;;;2.15;;
22060;SDS011;11194;48.092;-1.382;2023-09-19T10:05:15;8.00;;;2.42;;
22060;SDS011;11194;48.092;-1.382;2023-09-19T10:08:11;5.35;;;1.92;;
22060;SDS011;11194;48.092;-1.382;2023-09-19T10:10:39;8.15;;;2.17;;
22060;SDS011;11194;48.092;-1.382;2023-09-19T10:13:10;9.90;;;2.42;;
22060;SDS011;11194;48.092;-1.382;2023-09-19T10:15:43;4.63;;;2.15;;
22060;SDS011;11194;48.092;-1.382;2023-09-19T10:18:14;5.63;;;2.20;;
22060;SDS011;11194;48.092;-1.382;2023-09-19T10:20:43;7.00;;;2.35;;
22060;SDS011;11194;48.092;-1.382;2023-09-19T10:23:11;6.80;;;2.10;;
22060;SDS011;11194;48.092;-1.382;2023-09-19T10:25:41;6.15;;;2.17;;
22060;SDS011;11194;48.092;-1.382;2023-09-19T10:28:08;7.13;;;2.22;;
22060;SDS011;11194;48.092;-1.382;2023-09-19T10:30:40;10.25;;;2.40;;
22060;SDS011;11194;48.092;-1.382;2023-09-19T10:33:10;9.07;;;2.40;;
22060;SDS011;11194;48.092;-1.382;2023-09-19T10:35:41;4.80;;;2.00;;
22060;SDS011;11194;48.092;-1.382;2023-09-19T10:38:09;5.03;;;2.42;;
22060;SDS011;11194;48.092;-1.382;2023-09-19T10:40:36;9.23;;;2.70;;
22060;SDS011;11194;48.092;-1.382;2023-09-19T10:43:06;8.32;;;2.38;;
22060;SDS011;11194;48.092;-1.382;2023-09-19T10:45:33;7.03;;;2.47;;
22060;SDS011;11194;48.092;-1.382;2023-09-19T10:48:00;7.82;;;2.70;;
22060;SDS011;11194;48.092;-1.382;2023-09-19T10:50:30;7.38;;;2.17;;
22060;SDS011;11194;48.092;-1.382;2023-09-19T10:52:59;8.88;;;2.58;;
22060;SDS011;11194;48.092;-1.382;2023-09-19T10:55:29;8.27;;;2.40;;
22060;SDS011;11194;48.092;-1.382;2023-09-19T10:57:56;5.45;;;2.17;;
22060;SDS011;11194;48.092;-1.382;2023-09-19T11:00:52;6.25;;;2.60;;
22060;SDS011;11194;48.092;-1.382;2023-09-19T11:03:19;10.68;;;2.35;;
22060;SDS011;11194;48.092;-1.382;2023-09-19T11:06:01;8.30;;;2.40;;
22060;SDS011;11194;48.092;-1.382;2023-09-19T11:08:36;4.60;;;2.38;;
22060;SDS011;11194;48.092;-1.382;2023-09-19T11:14:13;5.68;;;2.58;;
22060;SDS011;11194;48.092;-1.382;2023-09-19T11:16:40;8.35;;;2.42;;
22060;SDS011;11194;48.092;-1.382;2023-09-19T11:19:07;9.27;;;2.47;;
22060;SDS011;11194;48.092;-1.382;2023-09-19T11:26:41;6.35;;;2.28;;
22060;SDS011;11194;48.092;-1.382;2023-09-19T11:29:25;7.25;;;2.63;;
22060;SDS011;11194;48.092;-1.382;2023-09-19T11:31:52;7.82;;;2.40;;
22060;SDS011;11194;48.092;-1.382;2023-09-19T11:37:17;12.52;;;2.78;;
22060;SDS011;11194;48.092;-1.382;2023-09-19T11:40:08;6.13;;;2.22;;
22060;SDS011;11194;48.092;-1.382;2023-09-19T11:42:45;7.22;;;2.80;;
22060;SDS011;11194;48.092;-1.382;2023-09-19T11:48:04;9.52;;;3.00;;
22060;SDS011;11194;48.092;-1.382;2023-09-19T11:50:32;4.65;;;2.20;;
22060;SDS011;11194;48.092;-1.382;2023-09-19T11:53:00;7.65;;;2.40;;
22060;SDS011;11194;48.092;-1.382;2023-09-19T11:55:28;4.90;;;2.30;;
22060;SDS011;11194;48.092;-1.382;2023-09-19T11:57:59;5.82;;;2.13;;
22060;SDS011;11194;48.092;-1.382;2023-09-19T12:00:25;8.00;;;2.25;;
22060;SDS011;11194;48.092;-1.382;2023-09-19T12:02:52;4.40;;;2.20;;
22060;SDS011;11194;48.092;-1.382;2023-09-19T12:05:39;6.50;;;2.40;;
22060;SDS011;11194;48.092;-1.382;2023-09-19T12:08:06;9.07;;;2.97;;
22060;SDS011;11194;48.092;-1.382;2023-09-19T12:10:47;5.75;;;2.38;;
22060;SDS011;11194;48.092;-1.382;2023-09-19T12:13:19;4.13;;;2.38;;
22060;SDS011;11194;48.092;-1.382;2023-09-19T12:15:46;5.88;;;2.17;;
22060;SDS011;11194;48.092;-1.382;2023-09-19T12:18:26;6.15;;;2.33;;
22060;SDS011;11194;48.092;-1.382;2023-09-19T12:20:52;9.10;;;2.35;;
22060;SDS011;11194;48.092;-1.382;2023-09-19T12:23:19;4.25;;;2.28;;
22060;SDS011;11194;48.092;-1.382;2023-09-19T12:25:46;7.80;;;2.30;;
22060;SDS011;11194;48.092;-1.382;2023-09-19T12:28:12;5.75;;;2.20;;
22060;SDS011;11194;48.092;-1.382;2023-09-19T12:30:38;5.38;;;2.10;;
22060;SDS011;11194;48.092;-1.382;2023-09-19T12:33:16;7.47;;;2.17;;
22060;SDS011;11194;48.092;-1.382;2023-09-19T12:35:44;6.75;;;2.20;;
22060;SDS011;11194;48.092;-1.382;2023-09-19T12:38:11;5.18;;;2.30;;
22060;SDS011;11194;48.092;-1.382;2023-09-19T12:40:37;5.85;;;2.28;;
22060;SDS011;11194;48.092;-1.382;2023-09-19T12:43:07;11.23;;;2.35;;
22060;SDS011;11194;48.092;-1.382;2023-09-19T12:45:34;5.93;;;2.00;;
22060;SDS011;11194;48.092;-1.382;2023-09-19T12:51:10;6.13;;;2.30;;
22060;SDS011;11194;48.092;-1.382;2023-09-19T12:53:41;5.95;;;2.17;;
22060;SDS011;11194;48.092;-1.382;2023-09-19T12:56:11;5.68;;;2.50;;
22060;SDS011;11194;48.092;-1.382;2023-09-19T12:58:54;7.07;;;2.30;;
22060;SDS011;11194;48.092;-1.382;2023-09-19T13:01:22;7.20;;;1.80;;
22060;SDS011;11194;48.092;-1.382;2023-09-19T13:06:55;11.13;;;2.28;;
22060;SDS011;11194;48.092;-1.382;2023-09-19T13:09:25;7.47;;;2.83;;
22060;SDS011;11194;48.092;-1.382;2023-09-19T13:12:03;6.72;;;2.53;;
22060;SDS011;11194;48.092;-1.382;2023-09-19T13:14:31;5.85;;;2.30;;
22060;SDS011;11194;48.092;-1.382;2023-09-19T13:17:03;5.65;;;2.42;;
22060;SDS011;11194;48.092;-1.382;2023-09-19T13:19:40;6.22;;;2.08;;
22060;SDS011;11194;48.092;-1.382;2023-09-19T13:24:52;7.97;;;2.25;;
22060;SDS011;11194;48.092;-1.382;2023-09-19T13:27:18;8.45;;;2.53;;
22060;SDS011;11194;48.092;-1.382;2023-09-19T13:29:44;7.68;;;2.40;;
22060;SDS011;11194;48.092;-1.382;2023-09-19T13:32:10;7.32;;;2.60;;
22060;SDS011;11194;48.092;-1.382;2023-09-19T13:34:36;4.65;;;2.35;;
22060;SDS011;11194;48.092;-1.382;2023-09-19T13:37:03;5.50;;;1.95;;
22060;SDS011;11194;48.092;-1.382;2023-09-19T13:39:29;5.53;;;2.15;;
22060;SDS011;11194;48.092;-1.382;2023-09-19T13:41:55;7.85;;;2.80;;
22060;SDS011;11194;48.092;-1.382;2023-09-19T13:44:22;7.28;;;2.40;;
22060;SDS011;11194;48.092;-1.382;2023-09-19T13:46:48;5.93;;;2.35;;
22060;SDS011;11194;48.092;-1.382;2023-09-19T13:49:14;6.40;;;2.28;;
22060;SDS011;11194;48.092;-1.382;2023-09-19T13:51:42;7.75;;;2.70;;
22060;SDS011;11194;48.092;-1.382;2023-09-19T13:54:08;8.02;;;2.30;;
22060;SDS011;11194;48.092;-1.382;2023-09-19T13:56:36;6.97;;;2.58;;
22060;SDS011;11194;48.092;-1.382;2023-09-19T13:59:04;8.80;;;2.78;;
22060;SDS011;11194;48.092;-1.382;2023-09-19T14:01:30;8.02;;;3.13;;
22060;SDS011;11194;48.092;-1.382;2023-09-19T14:03:56;7.95;;;3.40;;
22060;SDS011;11194;48.092;-1.382;2023-09-19T14:06:23;7.13;;;3.78;;
22060;SDS011;11194;48.092;-1.382;2023-09-19T14:08:49;7.22;;;3.47;;
22060;SDS011;11194;48.092;-1.382;2023-09-19T14:11:15;7.55;;;3.20;;
22060;SDS011;11194;48.092;-1.382;2023-09-19T14:13:41;7.32;;;3.10;;
22060;SDS011;11194;48.092;-1.382;2023-09-19T14:16:12;8.50;;;3.20;;
22060;SDS011;11194;48.092;-1.382;2023-09-19T14:18:38;7.95;;;3.20;;
22060;SDS011;11194;48.092;-1.382;2023-09-19T14:21:05;8.02;;;2.80;;
22060;SDS011;11194;48.092;-1.382;2023-09-19T14:23:37;6.10;;;3.00;;
22060;SDS011;11194;48.092;-1.382;2023-09-19T14:26:04;9.30;;;3.00;;
22060;SDS011;11194;48.092;-1.382;2023-09-19T14:28:31;9.98;;;2.80;;
22060;SDS011;11194;48.092;-1.382;2023-09-19T14:31:03;10.20;;;3.80;;
22060;SDS011;11194;48.092;-1.382;2023-09-19T14:33:30;8.25;;;2.70;;
22060;SDS011;11194;48.092;-1.382;2023-09-19T14:35:56;5.13;;;2.70;;
22060;SDS011;11194;48.092;-1.382;2023-09-19T14:38:22;6.85;;;3.45;;
22060;SDS011;11194;48.092;-1.382;2023-09-19T14:40:48;8.93;;;3.45;;
22060;SDS011;11194;48.092;-1.382;2023-09-19T14:43:15;6.93;;;2.95;;
22060;SDS011;11194;48.092;-1.382;2023-09-19T14:45:41;6.63;;;3.40;;
22060;SDS011;11194;48.092;-1.382;2023-09-19T14:48:07;8.00;;;3.55;;
22060;SDS011;11194;48.092;-1.382;2023-09-19T14:50:34;8.82;;;3.58;;
22060;SDS011;11194;48.092;-1.382;2023-09-19T14:53:00;7.97;;;3.10;;
22060;SDS011;11194;48.092;-1.382;2023-09-19T14:55:27;11.73;;;3.45;;
22060;SDS011;11194;48.092;-1.382;2023-09-19T14:57:59;7.28;;;3.67;;
22060;SDS011;11194;48.092;-1.382;2023-09-19T15:00:25;8.45;;;3.15;;
22060;SDS011;11194;48.092;-1.382;2023-09-19T15:02:52;7.75;;;3.08;;
22060;SDS011;11194;48.092;-1.382;2023-09-19T15:05:20;5.95;;;3.00;;
22060;SDS011;11194;48.092;-1.382;2023-09-19T15:07:46;12.85;;;3.63;;
22060;SDS011;11194;48.092;-1.382;2023-09-19T15:10:12;8.82;;;3.75;;
22060;SDS011;11194;48.092;-1.382;2023-09-19T15:12:38;9.13;;;3.08;;
22060;SDS011;11194;48.092;-1.382;2023-09-19T15:15:06;7.25;;;2.95;;
22060;SDS011;11194;48.092;-1.382;2023-09-19T15:17:33;13.07;;;3.80;;
22060;SDS011;11194;48.092;-1.382;2023-09-19T15:19:59;7.93;;;3.20;;